KBPI/BPI METAR and TAF weather

Enter ICAO airport designator
Station Type Date Time Source
KBPI METAR 2022/01/25 04:53 UTC NOAA

KBPI 250453Z AUTO 35012KT 10SM OVC070 M05/M10 A2991 RMK AO2 SLP165 T10501100


Station Type Date Time Source
KBPI Decoded METAR 2022/01/25 04:53 UTC NOAA

BIG PINEY-MARBLETON AIRPORT, WY, United States (KBPI) 42-35N 110-06W 2117M
Jan 24, 2022 - 11:53 PM EST / 2022.01.25 0453 UTC
Wind: from the N (350 degrees) at 14 MPH (12 KT):0
Visibility: 10 mile(s):0
Sky conditions: overcast
Temperature: 23.0 F (-5.0 C)
Windchill: 10 F (-12 C):1
Dew Point: 14.0 F (-10.0 C)
Relative Humidity: 67%
Pressure (altimeter): 29.91 in. Hg (1012 hPa)
ob: KBPI 250453Z AUTO 35012KT 10SM OVC070 M05/M10 A2991 RMK AO2 SLP165 T10501100
cycle: 5

Station Type Date Time Source
KBPI TAF 2022/01/25 06:22 UTC NOAA

TAF KBPI 250520Z 2506/2606 34011KT P6SM BKN070
FM250800 36006KT 4SM -SN OVC015
FM251500 27006KT P6SM BKN040
FM260000 VRB05KT P6SM SCT200

Example: see airport list